Time;durP1;ratioP1;P1;durP2;ratioP2;P2;SDS_P1;SDS_P2;PMS_P1;PMS_P2;Temp;Humidity;BMP_temperature;BMP_pressure;BME280_temperature;BME280_humidity;BME280_pressure;Samples;Min_cycle;Max_cycle;Signal;HPM_P1;HPM_P2
2022/09/13 00:00:05;;;;;;;8.27;5.55;;;;;;;20.67;52.88;93248.69;4988103;28;20034;-88
2022/09/13 00:02:32;;;;;;;8.32;5.13;;;;;;;20.65;52.80;93250.47;4986501;28;20512;-92
2022/09/13 00:04:57;;;;;;;8.88;5.03;;;;;;;20.65;52.88;93255.97;5001311;28;20464;-93
2022/09/13 00:07:22;;;;;;;9.00;5.70;;;;;;;20.65;52.70;93248.47;5017067;28;20045;-90
2022/09/13 00:09:49;;;;;;;7.47;5.38;;;;;;;20.66;53.08;93240.97;5022685;28;20044;-94
2022/09/13 00:12:16;;;;;;;7.65;4.75;;;;;;;20.65;52.72;93242.97;5025553;28;20045;-91
2022/09/13 00:14:41;;;;;;;7.20;4.72;;;;;;;20.65;52.84;93248.47;5043192;28;20105;-89
2022/09/13 00:17:07;;;;;;;7.15;4.53;;;;;;;20.65;52.91;93240.22;5029325;28;20064;-90
2022/09/13 00:19:32;;;;;;;8.10;4.80;;;;;;;20.64;52.80;93241.50;5045001;28;20538;-90
2022/09/13 00:21:58;;;;;;;8.40;5.15;;;;;;;20.64;52.90;93236.00;5046551;28;20615;-90
2022/09/13 00:24:23;;;;;;;7.97;4.70;;;;;;;20.64;52.84;93230.50;5060353;28;20419;-91
2022/09/13 00:26:48;;;;;;;7.63;5.10;;;;;;;20.65;52.58;93231.25;5057098;28;20554;-94
2022/09/13 00:29:14;;;;;;;7.45;5.05;;;;;;;20.65;52.83;93223.00;5025687;28;20107;-89
2022/09/13 00:31:41;;;;;;;6.80;5.18;;;;;;;20.65;52.72;93223.75;5054748;28;20555;-89
2022/09/13 00:34:06;;;;;;;7.07;4.30;;;;;;;20.64;52.60;93216.78;5022150;28;20046;-92
2022/09/13 00:36:31;;;;;;;7.05;4.63;;;;;;;20.66;52.45;93210.75;5042036;28;20110;-89
2022/09/13 00:38:59;;;;;;;7.05;4.80;;;;;;;20.65;52.82;93220.25;5021057;28;20071;-92
2022/09/13 00:41:25;;;;;;;6.45;4.70;;;;;;;20.65;52.39;93218.25;5027108;28;20217;-88
2022/09/13 00:43:54;;;;;;;8.40;4.93;;;;;;;20.64;52.78;93219.53;5058459;28;20092;-88
2022/09/13 00:46:26;;;;;;;6.55;5.00;;;;;;;20.65;52.83;93210.00;5062029;28;20033;-95
2022/09/13 00:48:54;;;;;;;6.53;4.60;;;;;;;20.64;52.91;93205.06;5045234;28;20041;-93
2022/09/13 00:51:21;;;;;;;8.70;5.50;;;;;;;20.64;52.80;93200.28;5045573;28;20021;-88
2022/09/13 00:53:49;;;;;;;6.72;4.40;;;;;;;20.66;52.80;93197.03;5064786;28;20036;-89
2022/09/13 00:56:21;;;;;;;7.18;4.47;;;;;;;20.63;52.66;93192.59;5059661;28;20025;-91
2022/09/13 00:58:52;;;;;;;6.60;4.63;;;;;;;20.64;52.87;93180.34;5059696;28;20056;-91
2022/09/13 01:01:17;;;;;;;;;;;;;;;20.66;52.79;93192.25;5064128;28;20052;-89
2022/09/13 01:03:49;;;;;;;6.32;4.28;;;;;;;20.64;52.66;93194.81;5063446;28;19993;-90
2022/09/13 01:06:21;;;;;;;6.55;4.65;;;;;;;20.62;52.78;93196.59;5079612;28;20047;-91
2022/09/13 01:08:48;;;;;;;8.35;5.13;;;;;;;20.64;53.02;93191.31;5062754;28;20040;-90
2022/09/13 01:11:27;;;;;;;6.55;4.95;;;;;;;20.62;52.66;93188.34;5044413;28;20049;-89
2022/09/13 01:13:52;;;;;;;6.40;4.20;;;;;;;20.61;52.72;93186.88;5077459;28;20024;-89
2022/09/13 01:16:17;;;;;;;7.22;4.85;;;;;;;20.63;52.65;93176.09;5041018;28;20527;-89
2022/09/13 01:18:43;;;;;;;6.78;4.38;;;;;;;20.60;52.69;93175.16;5052855;28;20411;-93
2022/09/13 01:21:36;;;;;;;5.20;4.07;;;;;;;20.61;52.73;93168.41;5029906;28;20021;-91
2022/09/13 01:24:15;;;;;;;6.30;4.75;;;;;;;20.62;52.98;93174.63;5064784;28;20046;-95
2022/09/13 01:27:02;;;;;;;7.03;5.17;;;;;;;20.61;52.91;93168.41;5049225;28;20050;-96
2022/09/13 01:29:59;;;;;;;6.05;4.07;;;;;;;20.61;52.81;93173.16;5064901;28;20036;-95
2022/09/13 01:32:29;;;;;;;7.30;4.43;;;;;;;20.61;52.61;93165.66;5063446;28;20409;-93
2022/09/13 01:35:26;;;;;;;4.32;3.60;;;;;;;20.61;52.62;93159.41;5063859;28;20044;-90
2022/09/13 01:37:59;;;;;;;5.45;4.15;;;;;;;20.59;52.58;93159.94;5042972;28;20042;-90
2022/09/13 01:40:49;;;;;;;7.07;4.50;;;;;;;20.60;52.79;93155.94;5040018;28;20039;-91
2022/09/13 01:43:21;;;;;;;6.35;3.83;;;;;;;20.62;52.58;93152.66;5077313;28;20492;-89
2022/09/13 01:46:10;;;;;;;5.72;4.22;;;;;;;20.60;52.63;93144.94;5042339;28;20097;-90
2022/09/13 01:48:47;;;;;;;7.07;4.45;;;;;;;20.64;52.71;93150.13;5024708;28;20053;-90
2022/09/13 01:51:21;;;;;;;6.68;4.40;;;;;;;20.58;52.70;93138.50;5057958;28;20053;-92
2022/09/13 01:53:57;;;;;;;7.72;4.38;;;;;;;20.60;52.64;93136.72;5046244;28;20045;-88
2022/09/13 01:57:02;;;;;;;6.38;4.28;;;;;;;20.59;52.96;93129.72;5062849;28;20109;-92
2022/09/13 01:59:49;;;;;;;6.40;4.25;;;;;;;20.58;52.63;93135.75;4991748;28;20034;-90
2022/09/13 02:02:42;;;;;;;4.93;3.90;;;;;;;20.59;52.69;93135.22;5004591;28;20054;-92
2022/09/13 02:05:23;;;;;;;5.90;4.40;;;;;;;20.58;53.07;93133.00;5021579;28;20063;-90
2022/09/13 02:07:59;;;;;;;6.32;4.28;;;;;;;20.58;52.88;93125.50;5017073;28;20493;-88
2022/09/13 02:10:52;;;;;;;5.95;4.32;;;;;;;20.57;53.00;93124.03;4992495;28;20515;-88
2022/09/13 02:13:25;;;;;;;6.20;4.30;;;;;;;20.58;52.95;93128.25;4967116;28;20081;-89
2022/09/13 02:15:53;;;;;;;6.03;4.30;;;;;;;20.60;53.00;93124.97;5014787;28;20038;-93
2022/09/13 02:18:24;;;;;;;6.00;4.15;;;;;;;20.57;52.59;93121.28;4971974;28;20069;-90
2022/09/13 02:20:51;;;;;;;5.95;4.07;;;;;;;20.57;52.69;93115.09;4973669;28;20133;-89
2022/09/13 02:23:20;;;;;;;4.97;3.70;;;;;;;20.56;52.57;93111.59;5005137;28;20046;-89
2022/09/13 02:25:47;;;;;;;;;;;;;;;20.61;52.62;93107.22;4990148;28;20479;-90
2022/09/13 02:28:14;;;;;;;5.22;4.03;;;;;;;20.59;52.67;93096.03;5008077;28;19921;-89
2022/09/13 02:30:43;;;;;;;7.28;4.22;;;;;;;20.58;52.74;93106.28;4990356;28;20045;-93
2022/09/13 02:33:14;;;;;;;5.15;4.00;;;;;;;20.57;52.63;93101.34;5001212;28;20038;-90
2022/09/13 02:35:46;;;;;;;4.43;3.40;;;;;;;20.58;52.57;93095.31;5022722;28;20535;-92
2022/09/13 02:38:16;;;;;;;4.68;3.55;;;;;;;20.56;52.57;93106.09;5059262;28;20032;-92
2022/09/13 02:40:48;;;;;;;6.20;3.65;;;;;;;20.58;52.50;93114.53;5031559;28;20068;-90
2022/09/13 02:43:18;;;;;;;5.90;3.83;;;;;;;20.58;52.63;93111.78;5029251;28;20125;-90
2022/09/13 02:46:18;;;;;;;5.07;3.17;;;;;;;20.57;52.51;93109.59;5040668;22;20027;-90
2022/09/13 02:48:59;;;;;;;5.00;3.90;;;;;;;20.56;52.69;93108.84;5008106;28;20468;-94
2022/09/13 02:51:59;;;;;;;4.95;4.00;;;;;;;20.57;52.51;93106.84;4991214;28;20042;-89
2022/09/13 02:54:25;;;;;;;5.03;3.70;;;;;;;20.58;52.19;93102.81;5037464;28;20022;-90
2022/09/13 02:57:15;;;;;;;6.32;3.55;;;;;;;20.58;52.76;93109.03;5011399;28;20068;-91
2022/09/13 02:59:41;;;;;;;4.70;3.20;;;;;;;20.57;52.56;93099.31;4998142;28;20038;-89
2022/09/13 03:02:12;;;;;;;5.63;3.83;;;;;;;20.59;52.68;93112.53;4988428;28;20548;-89
2022/09/13 03:04:38;;;;;;;5.78;3.50;;;;;;;20.55;52.42;93112.13;5003033;28;20065;-90
2022/09/13 03:07:09;;;;;;;5.40;3.22;;;;;;;20.55;52.78;93114.88;5006753;28;20042;-88
2022/09/13 03:09:34;;;;;;;5.32;3.88;;;;;;;20.56;52.70;93117.09;5005005;28;20058;-89
2022/09/13 03:12:40;;;;;;;5.53;3.80;;;;;;;20.56;52.43;93108.84;4989974;28;20138;-90
2022/09/13 03:15:11;;;;;;;5.93;3.78;;;;;;;20.55;52.71;93112.13;5024073;28;20120;-89
2022/09/13 03:17:45;;;;;;;4.65;3.53;;;;;;;20.56;52.33;93105.38;5006547;28;20587;-89
2022/09/13 03:20:18;;;;;;;4.90;3.60;;;;;;;20.53;52.39;93102.41;5041707;28;20062;-89
2022/09/13 03:23:21;;;;;;;5.18;3.75;;;;;;;20.54;52.54;93111.38;5063617;28;20033;-91
2022/09/13 03:25:59;;;;;;;8.27;4.30;;;;;;;20.53;52.64;93102.41;5044890;28;20045;-93
2022/09/13 03:28:54;;;;;;;4.97;3.25;;;;;;;20.54;52.54;93108.66;5042223;28;20060;-89
2022/09/13 03:31:26;;;;;;;4.63;3.45;;;;;;;20.52;52.48;93103.69;5041973;28;20096;-88
2022/09/13 03:33:58;;;;;;;4.28;3.17;;;;;;;20.53;52.48;93096.19;5058418;28;20543;-90
2022/09/13 03:36:57;;;;;;;6.18;3.53;;;;;;;20.53;52.35;93094.19;5010074;28;20033;-91
2022/09/13 03:39:34;;;;;;;4.85;3.28;;;;;;;20.52;52.92;93102.94;5003049;28;20107;-91
2022/09/13 03:42:01;;;;;;;6.03;2.95;;;;;;;20.57;52.81;93109.59;4987753;28;20109;-92
2022/09/13 03:44:30;;;;;;;9.07;4.03;;;;;;;20.52;52.62;93100.19;4986759;28;20034;-89
2022/09/13 03:46:56;;;;;;;8.20;3.05;;;;;;;20.53;52.71;93094.19;5051098;22;20057;-89
2022/09/13 03:49:26;;;;;;;5.63;3.10;;;;;;;20.53;52.67;93099.66;5041943;28;20050;-92
2022/09/13 03:51:52;;;;;;;9.30;3.88;;;;;;;20.54;52.60;93100.41;5034053;28;20036;-89
2022/09/13 03:54:23;;;;;;;5.13;3.20;;;;;;;20.54;52.58;93094.91;5033889;28;20044;-91
2022/09/13 03:57:11;;;;;;;4.20;3.00;;;;;;;20.55;52.53;93099.13;5037251;28;20468;-92
2022/09/13 03:59:40;;;;;;;4.32;3.20;;;;;;;20.55;52.73;93092.91;5064421;28;20094;-91
2022/09/13 04:02:08;;;;;;;5.03;3.10;;;;;;;20.54;52.45;93094.91;5019982;28;20099;-91
2022/09/13 04:04:40;;;;;;;5.50;3.10;;;;;;;20.56;52.91;93105.38;5039185;28;20669;-89
2022/09/13 04:07:17;;;;;;;26.73;4.88;;;;;;;20.49;51.15;93112.25;5051023;28;20754;-91
2022/09/13 04:09:44;;;;;;;20.52;5.90;;;;;;;20.44;49.06;93102.84;5040147;28;20052;-88
2022/09/13 04:12:10;;;;;;;36.53;28.30;;;;;;;20.38;47.68;93104.22;5063997;28;20092;-88
2022/09/13 04:14:36;;;;;;;35.92;26.20;;;;;;;20.36;47.13;93103.97;5066149;28;20036;-89
2022/09/13 04:17:02;;;;;;;19.00;11.52;;;;;;;20.33;46.51;93114.03;5027581;28;20043;-88
2022/09/13 04:19:27;;;;;;;11.15;7.07;;;;;;;20.28;46.46;93120.38;5034414;28;20079;-89
2022/09/13 04:21:53;;;;;;;8.43;5.63;;;;;;;20.29;46.64;93110.13;5060295;28;20044;-90
2022/09/13 04:24:20;;;;;;;28.30;18.50;;;;;;;20.33;46.79;93113.31;5051091;28;20064;-88
2022/09/13 04:26:50;;;;;;;78.18;64.97;;;;;;;20.32;46.57;93117.31;5062319;28;20085;-89
2022/09/13 04:29:19;;;;;;;80.80;59.47;;;;;;;20.32;46.92;93120.06;5066473;28;20124;-87
2022/09/13 04:31:44;;;;;;;45.58;20.48;;;;;;;20.39;46.79;93116.69;5049709;28;20056;-91
2022/09/13 04:34:10;;;;;;;33.28;19.70;;;;;;;20.37;47.62;93119.97;5065307;28;20040;-87
2022/09/13 04:36:35;;;;;;;57.80;19.52;;;;;;;20.40;47.75;93120.91;5031742;28;20096;-90
2022/09/13 04:39:01;;;;;;;39.95;16.45;;;;;;;20.44;47.90;93135.06;5027845;28;20048;-88
2022/09/13 04:41:27;;;;;;;43.63;23.13;;;;;;;20.43;48.11;93133.56;5047743;28;20071;-88
2022/09/13 04:43:54;;;;;;;95.05;61.40;;;;;;;20.45;48.62;93131.03;5050304;28;20033;-89
2022/09/13 04:46:20;;;;;;;48.67;31.73;;;;;;;20.50;49.41;93132.94;5023256;28;20095;-87
2022/09/13 04:48:49;;;;;;;26.60;11.60;;;;;;;20.50;49.70;93130.19;5058991;28;20056;-94
2022/09/13 04:51:16;;;;;;;31.45;14.30;;;;;;;20.51;49.96;93137.91;5073445;28;20479;-85
2022/09/13 04:53:45;;;;;;;23.10;12.77;;;;;;;20.51;49.78;93134.41;5070931;28;20033;-86
2022/09/13 04:56:12;;;;;;;18.17;12.07;;;;;;;20.51;49.91;93123.44;5054359;28;20033;-86
2022/09/13 04:58:38;;;;;;;30.30;11.27;;;;;;;20.43;48.98;93115.09;5067633;28;20047;-87
2022/09/13 05:01:06;;;;;;;67.57;17.35;;;;;;;20.44;48.36;93126.81;5036751;28;20267;-89
2022/09/13 05:03:32;;;;;;;58.28;10.80;;;;;;;20.37;47.75;93114.47;5045683;28;20039;-87
2022/09/13 05:06:09;;;;;;;35.58;9.27;;;;;;;20.37;46.55;93116.47;5064853;28;20040;-89
2022/09/13 05:08:35;;;;;;;25.05;10.30;;;;;;;20.35;46.54;93113.53;5056779;28;20130;-91
2022/09/13 05:11:01;;;;;;;207.13;24.73;;;;;;;20.35;46.21;93110.78;5042143;28;20422;-86
2022/09/13 05:13:26;;;;;;;456.48;52.15;;;;;;;20.30;46.08;93106.13;5031829;28;20178;-87
2022/09/13 05:15:56;;;;;;;177.02;25.90;;;;;;;20.30;46.24;93109.63;5033974;28;20170;-86
2022/09/13 05:18:26;;;;;;;141.13;28.40;;;;;;;20.24;46.36;93111.72;5038890;28;20040;-87
2022/09/13 05:20:57;;;;;;;168.73;31.13;;;;;;;20.23;46.57;93126.72;5037363;28;20036;-90
2022/09/13 05:23:23;;;;;;;126.00;26.75;;;;;;;20.19;46.18;93140.00;5071531;28;20044;-90
2022/09/13 05:25:59;;;;;;;90.22;19.35;;;;;;;20.20;46.26;93131.25;5034854;28;20041;-89
2022/09/13 05:28:27;;;;;;;91.35;16.70;;;;;;;20.15;46.17;93132.09;5057088;28;20048;-93
2022/09/13 05:30:58;;;;;;;74.15;13.45;;;;;;;20.11;45.92;93134.44;5044953;28;20032;-94
2022/09/13 05:33:23;;;;;;;;;;;;;;;20.21;46.01;93121.00;5036020;28;20044;-87
2022/09/13 05:35:49;;;;;;;52.67;11.57;;;;;;;20.13;45.66;93129.16;5045849;28;19978;-89
2022/09/13 05:38:17;;;;;;;46.08;15.38;;;;;;;20.04;46.14;93126.84;5039945;28;20037;-89
2022/09/13 05:40:45;;;;;;;30.83;9.70;;;;;;;20.07;46.17;93125.03;5026521;28;20041;-87
2022/09/13 05:43:24;;;;;;;40.53;10.57;;;;;;;20.06;46.13;93110.59;5053678;28;20044;-89
2022/09/13 05:45:50;;;;;;;31.13;9.98;;;;;;;20.00;46.29;93109.94;5043539;28;20036;-90
2022/09/13 05:48:15;;;;;;;47.78;18.90;;;;;;;19.99;46.69;93105.72;5055562;28;20419;-89
2022/09/13 05:50:41;;;;;;;45.97;14.50;;;;;;;19.98;47.09;93106.25;5023532;28;20052;-87
2022/09/13 05:53:17;;;;;;;33.47;11.32;;;;;;;20.01;47.59;93111.44;5055897;28;20071;-87
2022/09/13 05:55:45;;;;;;;31.35;12.40;;;;;;;19.99;47.70;93105.72;5080870;28;20072;-88
2022/09/13 05:58:12;;;;;;;37.83;11.43;;;;;;;19.99;47.93;93102.97;5073006;28;20064;-88
2022/09/13 06:01:05;;;;;;;39.55;13.10;;;;;;;20.04;47.97;93117.88;5079786;28;20052;-87
2022/09/13 06:03:31;;;;;;;111.50;69.18;;;;;;;20.00;48.30;93128.41;5039646;28;20037;-88
2022/09/13 06:05:58;;;;;;;113.13;68.75;;;;;;;20.04;48.44;93128.84;5018492;28;20052;-90
2022/09/13 06:08:27;;;;;;;51.60;13.50;;;;;;;19.99;48.37;93124.19;5055664;28;20084;-87
2022/09/13 06:10:58;;;;;;;33.63;12.75;;;;;;;19.98;48.68;93126.19;5002663;28;20084;-88
2022/09/13 06:13:24;;;;;;;25.00;11.23;;;;;;;19.97;48.64;93123.97;5010815;28;20041;-88
2022/09/13 06:15:51;;;;;;;17.55;7.88;;;;;;;19.96;49.07;93125.25;5022796;28;20062;-91
2022/09/13 06:18:17;;;;;;;19.77;6.68;;;;;;;19.96;49.27;93114.28;5036343;28;20047;-88
2022/09/13 06:20:46;;;;;;;14.10;5.68;;;;;;;20.00;49.13;93112.69;5000712;28;20053;-93
2022/09/13 06:23:21;;;;;;;11.02;5.53;;;;;;;20.08;48.97;93104.56;5017939;28;20037;-92
2022/09/13 06:25:47;;;;;;;14.25;5.88;;;;;;;20.10;49.79;93113.75;5005634;28;20599;-88
2022/09/13 06:28:12;;;;;;;19.30;11.77;;;;;;;20.09;49.58;93117.75;5019558;28;20073;-92
2022/09/13 06:31:02;;;;;;;29.10;19.95;;;;;;;20.15;49.66;93117.63;5014323;28;20045;-89
2022/09/13 06:33:35;;;;;;;29.27;14.75;;;;;;;20.16;49.58;93122.59;5030759;28;20730;-92
2022/09/13 06:38:55;;;;;;;22.42;11.52;;;;;;;20.12;49.72;93118.72;5064701;22;20064;-96
2022/09/13 06:41:23;;;;;;;23.10;14.48;;;;;;;20.11;50.13;93128.22;5006981;28;20656;-94
2022/09/13 06:43:53;;;;;;;17.13;10.38;;;;;;;20.12;50.40;93124.22;5000371;28;20049;-92
2022/09/13 06:46:27;;;;;;;18.50;9.02;;;;;;;20.13;50.48;93120.94;5036812;28;20017;-94
2022/09/13 06:49:02;;;;;;;19.63;8.07;;;;;;;20.12;51.01;93107.75;5020909;28;20604;-92
2022/09/13 06:51:41;;;;;;;20.05;6.80;;;;;;;20.15;51.42;93104.66;5064022;28;20034;-91
2022/09/13 06:54:08;;;;;;;20.20;7.60;;;;;;;20.16;51.42;93110.88;5045805;28;20040;-92
2022/09/13 06:56:40;;;;;;;102.03;16.13;;;;;;;20.16;51.91;93111.63;5047721;28;20063;-92
2022/09/13 06:59:09;;;;;;;33.90;9.75;;;;;;;20.12;52.34;93113.22;4990767;28;20559;-92
2022/09/13 07:01:42;;;;;;;120.25;16.88;;;;;;;20.15;52.33;93118.38;5014934;22;20061;-90
2022/09/13 07:04:13;;;;;;;79.13;12.23;;;;;;;20.16;52.09;93116.38;5033771;28;20108;-92
2022/09/13 07:06:40;;;;;;;73.65;12.52;;;;;;;20.14;51.93;93116.16;5054824;28;20060;-91
2022/09/13 07:09:10;;;;;;;61.70;11.25;;;;;;;20.11;51.84;93114.50;4998721;28;20044;-92
2022/09/13 07:11:57;;;;;;;66.25;13.82;;;;;;;20.14;51.84;93116.16;5005015;28;20038;-89
2022/09/13 07:14:24;;;;;;;198.48;39.42;;;;;;;20.15;51.98;93114.88;5026482;28;20125;-89
2022/09/13 07:16:50;;;;;;;87.68;24.35;;;;;;;20.13;52.29;93118.19;5012063;28;20048;-90
2022/09/13 07:19:32;;;;;;;49.45;19.58;;;;;;;20.15;52.49;93110.13;5018075;28;20540;-91
2022/09/13 07:21:58;;;;;;;51.90;27.77;;;;;;;20.19;52.94;93120.81;4992689;28;20042;-91
2022/09/13 07:24:27;;;;;;;137.93;49.92;;;;;;;20.16;52.88;93119.84;4976642;28;20057;-93
2022/09/13 07:27:04;;;;;;;112.65;42.92;;;;;;;20.17;53.19;93128.81;4910482;29;20045;-91
2022/09/13 07:29:30;;;;;;;125.45;44.42;;;;;;;20.22;53.13;93121.75;4946651;28;20043;-93
2022/09/13 07:32:05;;;;;;;119.68;44.83;;;;;;;20.27;53.14;93135.38;4938955;28;20066;-90
2022/09/13 07:34:32;;;;;;;132.73;50.88;;;;;;;20.27;53.22;93127.13;4954826;29;20023;-89
2022/09/13 07:37:01;;;;;;;111.93;46.50;;;;;;;20.34;52.80;93123.75;4930998;29;20048;-90
2022/09/13 07:39:27;;;;;;;57.20;28.20;;;;;;;20.30;53.07;93128.81;5006566;23;20132;-93
2022/09/13 07:42:37;;;;;;;61.38;29.80;;;;;;;20.33;53.05;93119.53;5023796;28;20068;-92
2022/09/13 07:50:26;;;;;;;53.85;21.65;;;;;;;20.34;52.98;93123.03;5356084;22;20041;-94
2022/09/13 07:55:31;;;;;;;62.30;21.20;;;;;;;20.34;52.70;93115.53;5052038;23;20063;-93
2022/09/13 07:58:25;;;;;;;37.30;17.23;;;;;;;20.39;52.62;93119.44;5026214;28;20033;-90
2022/09/13 08:04:19;;;;;;;32.38;15.35;;;;;;;20.37;52.17;93125.44;5021497;23;20021;-90
2022/09/13 08:06:45;;;;;;;44.55;21.02;;;;;;;20.39;51.92;93122.19;5016727;28;20524;-91
2022/09/13 08:09:12;;;;;;;36.05;21.20;;;;;;;20.40;51.78;93134.63;4965585;28;20035;-89
2022/09/13 08:11:46;;;;;;;48.13;18.75;;;;;;;20.44;51.71;93144.03;4969037;28;20078;-91
2022/09/13 08:14:15;;;;;;;58.90;22.23;;;;;;;20.45;51.53;93145.50;4954990;28;20039;-92
2022/09/13 08:16:41;;;;;;;57.95;21.42;;;;;;;20.43;51.62;93156.28;4937780;28;20082;-92
2022/09/13 08:19:10;;;;;;;45.20;16.95;;;;;;;20.47;51.66;93148.47;4920241;28;20157;-90
2022/09/13 08:21:37;;;;;;;37.83;14.55;;;;;;;20.44;51.63;93149.53;4915196;28;20057;-92
2022/09/13 08:24:12;;;;;;;34.63;12.73;;;;;;;20.46;51.62;93152.47;4960103;28;20039;-91
2022/09/13 08:26:37;;;;;;;57.55;19.48;;;;;;;20.49;51.60;93150.69;4930408;28;20126;-91
2022/09/13 08:29:04;;;;;;;55.70;19.48;;;;;;;20.49;51.74;93142.44;4949543;28;20129;-92
2022/09/13 08:31:34;;;;;;;42.03;17.00;;;;;;;20.47;51.74;93137.47;4938280;28;20035;-92
2022/09/13 08:34:03;;;;;;;92.80;23.13;;;;;;;20.50;51.79;93147.41;4928006;29;20055;-92
2022/09/13 08:36:28;;;;;;;60.47;17.92;;;;;;;20.48;51.70;93149.94;4919483;29;20042;-93
2022/09/13 08:38:59;;;;;;;57.35;19.83;;;;;;;20.51;51.44;93146.13;4925123;29;20056;-92
2022/09/13 08:41:40;;;;;;;48.17;19.85;;;;;;;20.51;51.30;93154.38;4999512;23;20065;-92
2022/09/13 08:44:29;;;;;;;42.28;14.60;;;;;;;20.53;51.46;93153.84;5008629;28;20148;-91
2022/09/13 08:47:28;;;;;;;45.15;14.63;;;;;;;20.54;51.17;93155.31;5005046;28;20046;-91
2022/09/13 08:50:19;;;;;;;25.25;14.57;;;;;;;20.52;51.21;93149.63;5043672;28;20600;-91
2022/09/13 08:52:49;;;;;;;27.02;13.57;;;;;;;20.53;50.92;93148.34;4989270;23;20068;-91
2022/09/13 08:55:39;;;;;;;24.25;11.30;;;;;;;20.53;51.29;93149.09;5025721;28;20099;-91
2022/09/13 08:58:26;;;;;;;24.27;11.47;;;;;;;20.55;51.10;93148.56;5016048;28;20054;-90
2022/09/13 09:01:05;;;;;;;24.98;12.25;;;;;;;20.57;50.99;93145.28;5000183;28;20034;-92
2022/09/13 09:03:51;;;;;;;17.75;9.70;;;;;;;20.56;51.15;93136.31;4975507;28;20034;-90
2022/09/13 09:06:16;;;;;;;23.67;12.82;;;;;;;20.57;51.18;93128.81;4987502;28;20042;-90
2022/09/13 09:08:50;;;;;;;32.60;16.40;;;;;;;20.62;51.05;93131.41;4998002;28;20034;-90
2022/09/13 09:11:47;;;;;;;44.63;20.02;;;;;;;20.58;51.11;93133.75;5020778;28;20109;-89
2022/09/13 09:14:34;;;;;;;34.03;20.25;;;;;;;20.61;50.98;93135.44;4978790;28;20046;-95
2022/09/13 09:17:12;;;;;;;37.42;20.85;;;;;;;20.66;51.00;93136.59;5002315;28;20045;-94
2022/09/13 09:19:40;;;;;;;32.05;18.23;;;;;;;20.66;50.73;93126.34;5005930;28;20042;-94
2022/09/13 09:22:15;;;;;;;34.25;20.08;;;;;;;20.65;50.73;93133.09;4970605;28;20332;-95
2022/09/13 09:24:52;;;;;;;27.63;17.02;;;;;;;20.68;50.79;93129.31;5012793;28;20034;-91
2022/09/13 09:27:18;;;;;;;27.33;17.42;;;;;;;20.68;50.81;93134.78;4959800;28;20035;-92
2022/09/13 09:29:45;;;;;;;33.33;18.42;;;;;;;20.68;50.81;93139.56;4969594;28;20097;-92
2022/09/13 09:32:35;;;;;;;38.60;24.80;;;;;;;20.68;50.89;93132.03;4999129;28;20121;-88
2022/09/13 09:35:30;;;;;;;44.83;26.33;;;;;;;20.69;51.03;93135.53;4997562;28;20045;-93
2022/09/13 09:38:26;;;;;;;49.67;29.25;;;;;;;20.72;50.82;93137.97;5000763;28;20076;-94
2022/09/13 09:40:52;;;;;;;68.45;33.08;;;;;;;20.73;50.75;93136.69;5000292;28;20064;-90
2022/09/13 09:43:32;;;;;;;71.07;32.50;;;;;;;20.76;50.95;93135.63;4996041;28;20038;-91
2022/09/13 09:45:58;;;;;;;124.00;37.45;;;;;;;20.78;51.11;93129.59;5004466;28;20467;-95
2022/09/13 09:48:31;;;;;;;217.32;52.42;;;;;;;20.75;50.94;93133.41;4991673;28;20117;-95
2022/09/13 09:50:57;;;;;;;212.52;51.60;;;;;;;20.75;51.18;93138.91;4999495;28;20025;-90
2022/09/13 09:53:27;;;;;;;181.38;43.17;;;;;;;20.73;51.07;93144.19;4974479;28;20053;-90
2022/09/13 09:56:11;;;;;;;124.80;33.58;;;;;;;20.79;50.83;93145.53;4994389;28;20057;-92
2022/09/13 09:58:45;;;;;;;69.78;26.98;;;;;;;20.80;50.81;93138.03;4984267;28;20044;-92
2022/09/13 10:01:18;;;;;;;61.85;21.52;;;;;;;20.80;50.32;93143.53;5010735;28;20049;-92
2022/09/13 10:03:56;;;;;;;61.22;22.55;;;;;;;20.78;50.36;93133.09;5019953;28;20049;-95
2022/09/13 10:06:24;;;;;;;46.08;23.33;;;;;;;20.81;50.40;93126.50;5012612;28;20121;-92
2022/09/13 10:09:00;;;;;;;62.00;22.95;;;;;;;20.76;50.39;93121.91;5003649;28;20056;-91
2022/09/13 10:11:39;;;;;;;44.65;20.40;;;;;;;20.77;50.28;93111.63;5006933;28;20068;-91
2022/09/13 10:14:04;;;;;;;36.10;17.30;;;;;;;20.77;50.16;93111.63;4973186;28;20076;-94
2022/09/13 10:16:32;;;;;;;45.95;16.95;;;;;;;20.76;49.71;93112.91;4930792;29;20067;-92
2022/09/13 10:19:24;;;;;;;25.73;14.73;;;;;;;20.76;49.83;93112.91;4926335;28;20063;-90
2022/09/13 10:22:00;;;;;;;26.02;14.23;;;;;;;20.76;49.88;93110.16;4949016;28;20065;-90
2022/09/13 10:24:28;;;;;;;31.08;14.75;;;;;;;20.78;50.18;93110.38;4952918;28;20061;-90
2022/09/13 10:26:53;;;;;;;42.15;16.33;;;;;;;20.78;50.20;93113.13;4932519;28;20041;-90
2022/09/13 10:29:21;;;;;;;37.85;15.02;;;;;;;20.78;50.39;93113.84;4933266;28;20052;-90
2022/09/13 10:31:48;;;;;;;32.20;14.48;;;;;;;20.83;50.35;93114.97;4920074;29;20048;-90
2022/09/13 10:34:19;;;;;;;33.60;15.68;;;;;;;20.82;50.32;93119.75;4929073;28;20537;-93
2022/09/13 10:37:01;;;;;;;25.13;12.88;;;;;;;20.85;50.65;93113.19;4920868;29;20379;-90
2022/09/13 10:39:27;;;;;;;27.67;13.93;;;;;;;20.82;50.61;93103.25;4939634;28;20385;-91
2022/09/13 10:41:57;;;;;;;30.67;15.65;;;;;;;20.83;50.52;93107.47;4954516;28;20205;-91
2022/09/13 10:44:29;;;;;;;23.90;14.20;;;;;;;20.87;50.69;93104.41;4939814;28;20047;-92
2022/09/13 10:46:55;;;;;;;28.48;14.48;;;;;;;20.88;50.52;93098.38;4953816;28;20042;-92
2022/09/13 10:49:46;;;;;;;22.35;12.82;;;;;;;20.86;50.36;93102.94;4957833;28;20512;-92
2022/09/13 10:52:23;;;;;;;26.05;14.85;;;;;;;20.85;50.60;93098.69;4971552;28;20571;-91
2022/09/13 10:54:49;;;;;;;33.40;12.57;;;;;;;20.88;50.97;93103.13;5005759;28;20550;-91
2022/09/13 10:57:33;;;;;;;22.10;12.57;;;;;;;20.90;50.81;93105.34;4964304;28;20041;-92
2022/09/13 10:59:59;;;;;;;28.67;13.63;;;;;;;20.92;50.86;93111.78;4978852;28;20046;-91
2022/09/13 11:02:39;;;;;;;24.15;13.52;;;;;;;20.90;50.91;93106.09;4974803;28;20100;-92
2022/09/13 11:05:21;;;;;;;22.42;11.90;;;;;;;20.90;50.76;93106.09;4999550;28;20042;-92
2022/09/13 11:08:24;;;;;;;33.65;13.32;;;;;;;20.87;50.84;93105.16;4985409;28;20500;-92
2022/09/13 11:11:02;;;;;;;29.80;13.07;;;;;;;20.91;50.93;93113.06;5001041;28;20066;-92
2022/09/13 11:13:46;;;;;;;30.90;14.75;;;;;;;20.88;50.97;93092.16;5011596;28;20129;-93
2022/09/13 11:16:29;;;;;;;28.33;14.73;;;;;;;20.90;51.20;93100.59;4978063;28;20034;-92
2022/09/13 11:19:07;;;;;;;36.67;14.65;;;;;;;20.94;50.88;93095.50;4965622;28;20378;-92
2022/09/13 11:21:55;;;;;;;28.42;14.90;;;;;;;20.92;51.06;93091.81;5002760;28;20497;-93
2022/09/13 11:24:26;;;;;;;39.95;18.40;;;;;;;20.92;51.03;93080.81;4993967;28;20061;-93
2022/09/13 11:27:04;;;;;;;51.70;19.75;;;;;;;20.92;50.90;93075.34;5014489;28;20044;-93
2022/09/13 11:29:48;;;;;;;40.20;17.90;;;;;;;20.94;50.95;93081.78;4971818;28;20030;-91
2022/09/13 11:32:20;;;;;;;38.10;19.25;;;;;;;20.95;51.08;93074.25;4996474;28;20042;-94
2022/09/13 11:35:04;;;;;;;37.50;17.98;;;;;;;20.98;51.08;93070.44;5018076;28;20038;-91
2022/09/13 11:37:33;;;;;;;43.88;21.70;;;;;;;20.96;51.22;93073.00;4996054;28;20050;-89
2022/09/13 11:40:27;;;;;;;49.92;24.02;;;;;;;20.97;51.35;93066.22;5042009;28;20060;-92
2022/09/13 11:43:03;;;;;;;40.38;22.75;;;;;;;20.96;51.23;93073.72;4994927;28;20497;-93
2022/09/13 11:45:35;;;;;;;46.35;23.05;;;;;;;21.02;52.01;93068.81;4981623;28;20038;-94
2022/09/13 11:48:39;;;;;;;55.40;27.08;;;;;;;20.99;51.43;93071.94;4996736;28;20055;-91
2022/09/13 11:51:14;;;;;;;73.88;39.22;;;;;;;20.98;51.01;93070.44;4952086;28;20382;-92
2022/09/13 11:54:05;;;;;;;65.05;36.63;;;;;;;21.02;51.31;93057.09;4988406;28;20060;-91
2022/09/13 11:56:34;;;;;;;;;;;;;;;20.99;51.20;93069.91;4980990;28;20506;-92
2022/09/13 11:59:40;;;;;;;85.55;47.15;;;;;;;20.99;51.13;93066.44;4953500;28;19958;-93
2022/09/13 12:02:30;;;;;;;95.03;52.00;;;;;;;20.99;51.30;93058.94;4944885;28;20129;-91
2022/09/13 12:05:04;;;;;;;106.47;54.00;;;;;;;21.03;50.86;93056.56;4952801;28;20047;-93
2022/09/13 12:07:34;;;;;;;104.97;54.13;;;;;;;21.02;50.89;93055.06;4956321;28;20047;-92